Time;durP1;ratioP1;P1;durP2;ratioP2;P2;SDS_P1;SDS_P2;PMS_P1;PMS_P2;Temp;Humidity;BMP_temperature;BMP_pressure;BME280_temperature;BME280_humidity;BME280_pressure;Samples;Min_cycle;Max_cycle;Signal;HPM_P1;HPM_P2
2022/06/13 00:00:17;;;;;;;;;;;;;;;29.39;25.98;101373.31;4435710;32;20046;-70
2022/06/13 00:02:42;;;;;;;;;;;;;;;29.68;25.72;101360.66;4434881;32;20392;-70
2022/06/13 00:05:09;;;;;;;;;;;;;;;29.90;25.55;101353.62;4438568;32;20361;-70
2022/06/13 00:07:35;;;;;;;;;;;;;;;29.61;25.81;101363.44;4435460;32;20001;-70
2022/06/13 00:10:01;;;;;;;;;;;;;;;29.87;25.32;101363.44;4434648;32;20007;-70
2022/06/13 00:12:28;;;;;;;;;;;;;;;29.69;25.71;101358.56;4435415;32;20003;-70
2022/06/13 00:14:54;;;;;;;;;;;;;;;29.06;26.67;101353.62;4436207;32;19967;-70
2022/06/13 00:17:19;;;;;;;;;;;;;;;29.07;26.64;101360.19;4437692;32;20335;-70
2022/06/13 00:19:46;;;;;;;;;;;;;;;29.26;26.36;101355.91;4433847;32;20280;-70
2022/06/13 00:22:11;;;;;;;;;;;;;;;29.94;25.59;101356.97;4436066;32;20362;-70
2022/06/13 00:24:37;;;;;;;;;;;;;;;30.24;25.21;101360.28;4435300;32;20333;-70
2022/06/13 00:27:03;;;;;;;;;;;;;;;30.32;24.89;101361.19;4435187;32;19987;-70
2022/06/13 00:29:28;;;;;;;;;;;;;;;30.27;25.07;101350.47;4435036;32;19981;-70
2022/06/13 00:31:54;;;;;;;;;;;;;;;30.45;24.76;101349.50;4433459;32;20394;-70
2022/06/13 00:34:19;;;;;;;;;;;;;;;30.02;25.30;101354.94;4434191;32;19956;-70
2022/06/13 00:36:45;;;;;;;;;;;;;;;30.01;25.08;101353.38;4438073;32;21050;-70
2022/06/13 00:39:11;;;;;;;;;;;;;;;30.12;25.03;101365.53;4436292;32;19984;-70
2022/06/13 00:41:39;;;;;;;;;;;;;;;30.36;24.87;101362.41;4433803;32;20431;-70
2022/06/13 00:44:16;;;;;;;;;;;;;;;30.52;24.70;101360.44;4434992;32;20017;-70
2022/06/13 00:46:42;;;;;;;;;;;;;;;30.44;24.53;101350.88;4436838;32;20263;-70
2022/06/13 00:49:09;;;;;;;;;;;;;;;30.18;24.89;101356.69;4437977;32;20044;-70
2022/06/13 00:51:39;;;;;;;;;;;;;;;30.54;24.61;101349.81;4437085;32;19986;-70
2022/06/13 00:54:05;;;;;;;;;;;;;;;30.24;24.96;101342.88;4439237;32;20023;-70
2022/06/13 00:56:32;;;;;;;;;;;;;;;29.85;25.35;101349.50;4436810;32;19949;-70
2022/06/13 00:59:02;;;;;;;;;;;;;;;29.87;25.35;101357.62;4435962;32;20055;-70
2022/06/13 01:01:29;;;;;;;;;;;;;;;29.84;25.58;101362.44;4434534;32;19992;-70
2022/06/13 01:03:57;;;;;;;;;;;;;;;30.10;25.16;101370.34;4435514;32;20022;-70
2022/06/13 01:06:25;;;;;;;;;;;;;;;29.92;25.27;101374.97;4435137;32;20084;-70
2022/06/13 01:08:50;;;;;;;;;;;;;;;29.63;25.61;101370.25;4434087;32;20001;-70
2022/06/13 01:11:19;;;;;;;;;;;;;;;29.34;26.10;101364.72;4434054;32;20329;-69
2022/06/13 01:25:09;;;;;;;;;;;;;;;29.39;26.26;101372.56;3951470;32;15722645;-70
2022/06/13 01:27:54;;;;;;;;;;;;;;;29.39;26.26;101372.56;4437208;32;20377;-70
2022/06/13 01:35:43;;;;;;;;;;;;;;;29.42;26.04;101366.41;3951630;32;15725485;-69
2022/06/13 01:41:10;;;;;;;;;;;;;;;29.42;26.30;101378.00;3952107;32;15722560;-69
2022/06/13 01:43:56;;;;;;;;;;;;;;;29.42;26.30;101378.00;4434291;32;19996;-70
2022/06/13 01:46:32;;;;;;;;;;;;;;;28.87;26.64;101365.25;4436246;32;20010;-70
2022/06/13 01:49:18;;;;;;;;;;;;;;;28.33;27.17;101361.06;4432434;32;19965;-71
2022/06/13 01:51:56;;;;;;;;;;;;;;;28.19;27.41;101357.31;4435914;32;19953;-70
2022/06/13 01:54:28;;;;;;;;;;;;;;;27.10;28.94;101348.53;4431751;32;20353;-70
2022/06/13 01:57:14;;;;;;;;;;;;;;;28.15;27.52;101348.16;4431861;32;20316;-71
2022/06/13 01:59:47;;;;;;;;;;;;;;;28.55;26.97;101357.88;4436254;32;20086;-70
2022/06/13 02:02:19;;;;;;;;;;;;;;;27.85;27.46;101361.16;4432878;32;19972;-69
2022/06/13 02:04:50;;;;;;;;;;;;;;;27.46;28.23;101366.59;4433723;32;19993;-70
2022/06/13 02:07:19;;;;;;;;;;;;;;;28.44;26.83;101376.16;4432494;32;20353;-69
2022/06/13 02:09:48;;;;;;;;;;;;;;;27.83;27.57;101373.28;4434048;32;19999;-69
2022/06/13 02:12:15;;;;;;;;;;;;;;;28.28;26.85;101382.97;4430906;32;21081;-69
2022/06/13 02:14:45;;;;;;;;;;;;;;;27.92;27.16;101372.91;4435393;32;19981;-69
2022/06/13 02:22:26;;;;;;;;;;;;;;;28.83;26.13;101379.28;3957959;32;15731626;-69
2022/06/13 02:24:57;;;;;;;;;;;;;;;28.83;26.13;101379.28;4424933;32;20024;-69
2022/06/13 02:27:25;;;;;;;;;;;;;;;28.55;26.41;101376.03;4430846;32;20351;-70
2022/06/13 02:29:55;;;;;;;;;;;;;;;28.96;25.90;101379.31;4433726;32;19954;-69
2022/06/13 02:32:25;;;;;;;;;;;;;;;28.83;25.97;101382.19;4432294;32;19987;-69
2022/06/13 02:34:54;;;;;;;;;;;;;;;28.89;25.78;101391.56;4431563;32;19997;-69
2022/06/13 02:37:24;;;;;;;;;;;;;;;29.12;25.68;101392.00;4430947;32;20023;-69
2022/06/13 02:47:39;;;;;;;;;;;;;;;29.16;25.88;101414.84;3956487;32;15722264;-69
2022/06/13 02:50:08;;;;;;;;;;;;;;;29.16;25.88;101414.84;4428983;32;19958;-69
2022/06/13 02:52:38;;;;;;;;;;;;;;;28.51;26.44;101401.66;4427281;32;19957;-69
2022/06/13 02:55:07;;;;;;;;;;;;;;;28.72;26.07;101404.75;4426822;32;19972;-70
2022/06/13 03:02:45;;;;;;;;;;;;;;;29.17;25.85;101396.91;3952236;32;15722582;-69
2022/06/13 03:07:56;;;;;;;;;;;;;;;28.78;26.26;101399.66;3952595;32;15723630;-70
2022/06/13 03:10:31;;;;;;;;;;;;;;;28.78;26.26;101399.66;4429077;32;19993;-69
2022/06/13 03:13:01;;;;;;;;;;;;;;;27.89;27.45;101400.03;4428540;32;20030;-69
2022/06/13 03:15:39;;;;;;;;;;;;;;;28.68;26.24;101407.97;4429660;32;19965;-69
2022/06/13 03:18:06;;;;;;;;;;;;;;;28.57;26.35;101407.34;4427595;32;20488;-69
2022/06/13 03:20:39;;;;;;;;;;;;;;;28.54;26.49;101412.13;4432589;32;20388;-69
2022/06/13 03:23:07;;;;;;;;;;;;;;;28.79;26.23;101416.50;4429973;32;20090;-70
2022/06/13 03:30:45;;;;;;;;;;;;;;;29.10;26.19;101422.88;3952067;32;15722635;-69
2022/06/13 03:33:44;;;;;;;;;;;;;;;29.10;26.19;101422.88;4433596;32;20014;-70
2022/06/13 03:36:03;;;;;;;;;;;;;;;28.70;26.23;101416.87;4429883;32;20448;-70
2022/06/13 03:38:32;;;;;;;;;;;;;;;28.73;26.05;101417.91;4430305;32;20015;-69
2022/06/13 03:41:00;;;;;;;;;;;;;;;28.73;26.12;101421.59;4431847;32;19985;-69
2022/06/13 03:43:29;;;;;;;;;;;;;;;28.47;26.45;101418.53;4431229;32;20013;-69
2022/06/13 03:46:01;;;;;;;;;;;;;;;28.32;26.43;101400.81;4431651;32;20000;-69
2022/06/13 03:48:35;;;;;;;;;;;;;;;28.44;26.54;101410.91;4430043;32;20114;-70
2022/06/13 03:51:11;;;;;;;;;;;;;;;28.30;26.62;101414.28;4431749;32;19958;-69
2022/06/13 03:53:41;;;;;;;;;;;;;;;27.80;27.26;101417.75;4430290;32;20434;-69
2022/06/13 03:58:49;;;;;;;;;;;;;;;28.24;27.15;101417.06;3952682;32;15725356;-68
2022/06/13 04:01:17;;;;;;;;;;;;;;;28.25;27.15;101418.00;4428627;32;20431;-69
2022/06/13 04:03:43;;;;;;;;;;;;;;;28.33;26.80;101421.88;4427509;32;20581;-68
2022/06/13 04:06:28;;;;;;;;;;;;;;;27.96;27.32;101421.81;4429146;32;19962;-68
2022/06/13 04:08:54;;;;;;;;;;;;;;;27.93;27.06;101391.84;4428512;32;20498;-68
2022/06/13 04:11:32;;;;;;;;;;;;;;;28.66;26.52;101433.03;4426862;32;19973;-69
2022/06/13 04:14:19;;;;;;;;;;;;;;;28.28;26.90;101432.19;4430395;32;19956;-68
2022/06/13 04:16:57;;;;;;;;;;;;;;;28.48;26.57;101428.81;4428832;32;20419;-69
2022/06/13 04:22:26;;;;;;;;;;;;;;;28.74;26.69;101434.72;3955922;31;15721519;-69
2022/06/13 04:27:37;;;;;;;;;;;;;;;29.47;25.72;101434.34;3951729;32;15724465;-69
2022/06/13 04:32:44;;;;;;;;;;;;;;;29.65;25.52;101445.91;3951777;32;15725581;-69
2022/06/13 04:35:11;;;;;;;;;;;;;;;29.65;25.52;101445.91;4427415;32;19994;-69
2022/06/13 04:37:37;;;;;;;;;;;;;;;29.31;25.54;101438.31;4427437;32;19957;-69
2022/06/13 04:40:06;;;;;;;;;;;;;;;29.84;25.06;101449.50;4425198;32;20051;-69
2022/06/13 04:42:33;;;;;;;;;;;;;;;29.91;24.79;101448.06;4428803;32;19988;-69
2022/06/13 04:45:01;;;;;;;;;;;;;;;29.60;24.83;101455.47;4428524;32;20035;-69
2022/06/13 04:47:27;;;;;;;;;;;;;;;29.90;24.88;101467.59;4426837;32;20446;-69
2022/06/13 04:49:54;;;;;;;;;;;;;;;29.79;25.09;101464.91;4427595;32;20022;-69
2022/06/13 04:52:23;;;;;;;;;;;;;;;29.93;24.77;101459.88;4429371;32;21456;-69
2022/06/13 04:57:25;;;;;;;;;;;;;;;30.46;24.60;101461.44;3958157;32;15722470;-70
2022/06/13 04:59:51;;;;;;;;;;;;;;;30.46;24.60;101461.44;4434506;32;20039;-69
2022/06/13 05:02:18;;;;;;;;;;;;;;;30.33;24.23;101465.16;4436270;32;20033;-69
2022/06/13 05:04:44;;;;;;;;;;;;;;;30.74;24.01;101473.28;4435996;32;20031;-69
2022/06/13 05:12:31;;;;;;;;;;;;;;;30.91;23.47;101478.69;3951077;32;15736447;-68
2022/06/13 05:15:02;;;;;;;;;;;;;;;30.91;23.47;101478.69;4429876;32;19961;-69
2022/06/13 05:17:49;;;;;;;;;;;;;;;30.27;24.01;101469.53;4427296;32;19972;-69
2022/06/13 05:25:44;;;;;;;;;;;;;;;30.53;24.17;101475.31;3942541;32;15727617;-68
2022/06/13 05:28:12;;;;;;;;;;;;;;;30.53;24.17;101475.31;4417349;32;19993;-68
2022/06/13 05:30:40;;;;;;;;;;;;;;;29.68;24.60;101475.94;4416879;32;19958;-68
2022/06/13 05:33:05;;;;;;;;;;;;;;;29.92;24.49;101484.47;4415413;32;20030;-68
2022/06/13 05:35:32;;;;;;;;;;;;;;;29.24;25.19;101477.47;4416255;32;20438;-69
2022/06/13 05:37:59;;;;;;;;;;;;;;;29.91;24.49;101485.81;4415084;32;19961;-69
2022/06/13 05:40:24;;;;;;;;;;;;;;;29.99;24.33;101486.69;4415870;32;20374;-70
2022/06/13 05:42:50;;;;;;;;;;;;;;;29.95;24.24;101489.94;4418860;32;20031;-70
2022/06/13 05:45:18;;;;;;;;;;;;;;;30.17;23.98;101498.22;4413960;32;20363;-69
2022/06/13 05:47:46;;;;;;;;;;;;;;;29.89;24.26;101497.19;4413939;32;20005;-70
2022/06/13 05:50:13;;;;;;;;;;;;;;;29.58;24.59;101495.06;4414095;32;20045;-70
2022/06/13 05:52:39;;;;;;;;;;;;;;;29.61;24.59;101488.16;4414109;32;19958;-70
2022/06/13 05:55:05;;;;;;;;;;;;;;;29.19;25.04;101481.22;4416556;32;19988;-70
2022/06/13 05:57:31;;;;;;;;;;;;;;;29.09;25.32;101493.78;4417477;32;20094;-70
2022/06/13 05:59:58;;;;;;;;;;;;;;;29.24;25.09;101496.97;4415762;32;19971;-70
2022/06/13 06:02:23;;;;;;;;;;;;;;;29.46;24.99;101499.50;4415938;32;20631;-69
2022/06/13 06:04:49;;;;;;;;;;;;;;;29.28;25.11;101506.12;4416055;32;19953;-69
2022/06/13 06:07:15;;;;;;;;;;;;;;;29.75;24.56;101504.28;4412328;32;19968;-69
2022/06/13 06:09:40;;;;;;;;;;;;;;;30.29;24.05;101519.13;4418286;32;20005;-70
2022/06/13 06:12:06;;;;;;;;;;;;;;;30.84;23.46;101517.97;4414368;32;19968;-69
2022/06/13 06:14:31;;;;;;;;;;;;;;;30.52;23.42;101517.31;4415587;32;20016;-69
2022/06/13 06:16:57;;;;;;;;;;;;;;;30.67;23.45;101505.91;4416300;32;20009;-69
2022/06/13 06:19:23;;;;;;;;;;;;;;;30.83;22.93;101516.41;4414910;32;19966;-69
2022/06/13 06:21:49;;;;;;;;;;;;;;;30.97;22.78;101520.84;4415629;32;20395;-69
2022/06/13 06:24:14;;;;;;;;;;;;;;;30.57;23.35;101517.22;4415432;32;20030;-70
2022/06/13 06:26:40;;;;;;;;;;;;;;;31.33;22.42;101530.59;4413523;32;19985;-70
2022/06/13 06:29:05;;;;;;;;;;;;;;;30.73;23.09;101524.00;4416650;32;20385;-70
2022/06/13 06:31:32;;;;;;;;;;;;;;;31.63;22.17;101527.22;4417872;32;19953;-70
2022/06/13 06:33:57;;;;;;;;;;;;;;;31.30;22.53;101525.13;4414582;32;20005;-69
2022/06/13 06:36:24;;;;;;;;;;;;;;;30.54;23.42;101526.25;4405499;32;19957;-69
2022/06/13 06:38:50;;;;;;;;;;;;;;;30.87;22.95;101533.50;4398675;32;20003;-69
2022/06/13 06:41:15;;;;;;;;;;;;;;;30.94;23.01;101521.97;4405992;32;20004;-69
2022/06/13 06:43:41;;;;;;;;;;;;;;;30.76;23.23;101526.59;4398433;32;19993;-69
2022/06/13 06:46:08;;;;;;;;;;;;;;;30.13;24.08;101523.12;4403110;32;20370;-69
2022/06/13 06:48:36;;;;;;;;;;;;;;;30.94;23.14;101519.06;4400404;32;20230;-69
2022/06/13 06:51:04;;;;;;;;;;;;;;;31.29;22.83;101523.56;4399591;32;19997;-69
2022/06/13 06:59:53;;;;;;;;;;;;;;;30.94;23.16;101513.25;4397459;32;20199;-70
2022/06/13 07:01:46;;;;;;;;;;;;;;;31.17;22.69;101528.81;4395554;32;20521;-69
2022/06/13 07:04:12;;;;;;;;;;;;;;;30.83;23.00;101537.53;4395895;32;19958;-69
2022/06/13 07:06:38;;;;;;;;;;;;;;;30.79;22.83;101533.41;4395012;32;20281;-69
2022/06/13 07:09:04;;;;;;;;;;;;;;;30.62;23.00;101535.88;4394103;32;19970;-69
2022/06/13 07:12:02;;;;;;;;;;;;;;;30.68;22.94;101539.44;4398636;32;20316;-69
2022/06/13 07:14:16;;;;;;;;;;;;;;;30.27;23.15;101540.00;4395371;32;20331;-69
2022/06/13 07:16:42;;;;;;;;;;;;;;;30.97;22.61;101543.31;4396568;32;19969;-69
2022/06/13 07:19:07;;;;;;;;;;;;;;;31.24;22.17;101548.50;4390952;32;20000;-69
2022/06/13 07:21:33;;;;;;;;;;;;;;;31.89;21.26;101538.72;4396473;32;20010;-69
2022/06/13 07:23:58;;;;;;;;;;;;;;;30.80;22.22;101535.75;4389599;32;20473;-69
2022/06/13 07:26:24;;;;;;;;;;;;;;;31.85;21.38;101542.00;4393082;32;19989;-69
2022/06/13 07:28:49;;;;;;;;;;;;;;;31.68;21.70;101550.34;4393868;32;19994;-69
2022/06/13 07:31:18;;;;;;;;;;;;;;;32.02;21.26;101553.97;4393631;32;20009;-69
2022/06/13 07:33:44;;;;;;;;;;;;;;;31.36;22.05;101560.69;4395266;32;20001;-70
2022/06/13 07:36:10;;;;;;;;;;;;;;;31.25;22.37;101566.72;4393246;32;19978;-69
2022/06/13 07:38:35;;;;;;;;;;;;;;;31.59;22.06;101562.47;4397206;32;20010;-70
2022/06/13 07:41:01;;;;;;;;;;;;;;;31.38;22.23;101560.91;4398166;32;20054;-70
2022/06/13 07:43:29;;;;;;;;;;;;;;;31.60;22.00;101564.03;4395138;32;19985;-69
2022/06/13 07:45:55;;;;;;;;;;;;;;;31.40;22.20;101564.81;4398828;32;20052;-70
2022/06/13 07:48:21;;;;;;;;;;;;;;;30.24;23.68;101560.66;4395887;32;20014;-70
2022/06/13 07:50:47;;;;;;;;;;;;;;;29.72;24.22;101557.62;4397097;32;20004;-68
2022/06/13 07:53:13;;;;;;;;;;;;;;;30.71;23.17;101564.47;4397461;32;20238;-69
2022/06/13 07:55:39;;;;;;;;;;;;;;;29.95;24.05;101561.72;4394714;32;20408;-68
2022/06/13 07:58:06;;;;;;;;;;;;;;;30.14;23.87;101562.41;4394344;32;20009;-69
2022/06/13 08:00:35;;;;;;;;;;;;;;;31.11;22.88;101560.19;4395960;32;20379;-69
2022/06/13 08:03:01;;;;;;;;;;;;;;;31.24;22.63;101570.97;4395626;32;19970;-69
2022/06/13 08:05:28;;;;;;;;;;;;;;;30.58;23.48;101576.09;4394473;32;20245;-68
2022/06/13 08:07:53;;;;;;;;;;;;;;;31.14;22.73;101573.59;4393368;32;20351;-68
2022/06/13 08:10:19;;;;;;;;;;;;;;;31.75;22.19;101583.78;4396475;32;20013;-69
2022/06/13 08:12:45;;;;;;;;;;;;;;;32.04;21.90;101579.63;4394791;32;20356;-69
2022/06/13 08:15:11;;;;;;;;;;;;;;;31.76;22.01;101586.13;4391622;32;20009;-69
2022/06/13 08:17:37;;;;;;;;;;;;;;;31.70;22.29;101585.50;4393775;32;20001;-69
2022/06/13 08:20:04;;;;;;;;;;;;;;;32.49;21.44;101586.59;4396921;32;20016;-69
2022/06/13 08:22:29;;;;;;;;;;;;;;;32.51;21.32;101586.81;4396183;32;20216;-69
2022/06/13 08:24:55;;;;;;;;;;;;;;;32.85;20.93;101582.91;4394947;32;20033;-69
2022/06/13 08:27:21;;;;;;;;;;;;;;;33.12;20.76;101587.13;4397388;32;20430;-69
2022/06/13 08:29:46;;;;;;;;;;;;;;;33.65;20.23;101573.53;4386865;32;19972;-69
2022/06/13 08:32:13;;;;;;;;;;;;;;;33.26;20.37;101574.75;4398855;32;19969;-69
2022/06/13 08:34:39;;;;;;;;;;;;;;;33.43;19.44;101575.03;4395047;32;20019;-68
2022/06/13 08:37:04;;;;;;;;;;;;;;;33.66;18.93;101575.87;4396512;32;20484;-69
2022/06/13 08:39:30;;;;;;;;;;;;;;;34.19;18.67;101590.50;4394820;32;20027;-69
2022/06/13 08:42:14;;;;;;;;;;;;;;;34.73;17.64;101583.25;4391572;32;20009;-69
2022/06/13 08:47:21;;;;;;;;;;;;;;;35.28;17.41;101587.72;3956565;31;15716923;-69
2022/06/13 08:50:07;;;;;;;;;;;;;;;35.28;17.41;101587.72;4430840;32;20453;-68
2022/06/13 08:52:41;;;;;;;;;;;;;;;34.75;17.48;101584.19;4426355;32;20026;-69
2022/06/13 08:55:10;;;;;;;;;;;;;;;34.74;16.95;101600.19;4428498;32;19953;-69
2022/06/13 08:57:39;;;;;;;;;;;;;;;34.72;16.21;101593.41;4428703;32;19957;-69
2022/06/13 09:00:08;;;;;;;;;;;;;;;34.44;16.43;101588.56;4426043;32;20013;-70
2022/06/13 09:02:39;;;;;;;;;;;;;;;34.03;16.75;101595.59;4428812;32;19990;-70
2022/06/13 09:05:09;;;;;;;;;;;;;;;34.11;16.59;101583.88;4430405;32;19993;-70
2022/06/13 09:07:58;;;;;;;;;;;;;;;34.31;16.55;101585.81;4426529;32;20497;-70
2022/06/13 09:13:02;;;;;;;;;;;;;;;34.09;17.26;101602.03;3948918;32;15722558;-69
2022/06/13 09:15:31;;;;;;;;;;;;;;;34.09;17.26;101602.03;4421759;32;19954;-69
2022/06/13 09:20:54;;;;;;;;;;;;;;;33.76;17.04;101608.19;3947452;32;15721548;-70
2022/06/13 09:23:39;;;;;;;;;;;;;;;33.83;16.94;101599.44;4427397;32;19949;-70
2022/06/13 09:26:11;;;;;;;;;;;;;;;34.05;16.49;101598.69;4429104;32;20056;-70
2022/06/13 09:28:44;;;;;;;;;;;;;;;34.64;15.54;101602.19;4429753;32;20012;-70
2022/06/13 09:31:13;;;;;;;;;;;;;;;34.73;15.62;101606.63;4430345;32;19993;-69
2022/06/13 09:33:43;;;;;;;;;;;;;;;35.42;15.17;101603.69;4428081;32;20235;-70
2022/06/13 09:38:50;;;;;;;;;;;;;;;34.54;16.59;101604.13;3944871;32;15727405;-71
2022/06/13 09:41:36;;;;;;;;;;;;;;;34.54;16.59;101604.13;4424085;32;19997;-69
2022/06/13 09:44:13;;;;;;;;;;;;;;;34.62;16.71;101616.59;4421322;32;19968;-69
2022/06/13 09:49:36;;;;;;;;;;;;;;;33.44;18.21;101613.75;3944452;32;15723584;-70
2022/06/13 09:55:01;;;;;;;;;;;;;;;33.77;17.25;101619.28;3947017;32;15733642;-70
2022/06/13 10:05:41;;;;;;;;;;;;;;;35.60;15.85;101625.84;3945861;32;15736390;-69
2022/06/13 10:13:26;;;;;;;;;;;;;;;35.93;15.78;101626.63;3944080;32;15725304;-70
2022/06/13 10:16:11;;;;;;;;;;;;;;;35.93;15.78;101626.63;4417978;32;19989;-70
2022/06/13 10:21:19;;;;;;;;;;;;;;;35.33;16.20;101618.12;3945060;32;15728596;-70
2022/06/13 10:23:51;;;;;;;;;;;;;;;35.33;16.20;101618.12;4420925;32;19997;-70
2022/06/13 10:29:13;;;;;;;;;;;;;;;35.18;16.60;101619.00;3945108;32;15726596;-69
2022/06/13 10:31:59;;;;;;;;;;;;;;;35.18;16.60;101619.00;4420511;32;20012;-69
2022/06/13 10:39:35;;;;;;;;;;;;;;;35.36;16.74;101617.78;3943947;32;15728653;-70
2022/06/13 10:42:05;;;;;;;;;;;;;;;35.36;16.74;101617.78;4421323;32;20000;-70
2022/06/13 10:44:31;;;;;;;;;;;;;;;35.48;16.50;101615.16;4417194;32;20440;-69
2022/06/13 10:47:01;;;;;;;;;;;;;;;34.68;16.85;101610.53;4416770;32;20150;-69
2022/06/13 10:49:34;;;;;;;;;;;;;;;35.58;16.27;101616.06;4413790;32;20389;-69
2022/06/13 10:52:03;;;;;;;;;;;;;;;35.96;16.05;101611.53;4415311;32;20140;-69
2022/06/13 10:54:33;;;;;;;;;;;;;;;35.76;16.03;101615.56;4419486;32;20001;-70
2022/06/13 10:57:02;;;;;;;;;;;;;;;35.77;16.13;101610.50;4421650;32;20078;-68
2022/06/13 10:59:30;;;;;;;;;;;;;;;36.51;15.66;101620.09;4420883;32;20007;-69
2022/06/13 11:02:00;;;;;;;;;;;;;;;36.81;15.36;101624.91;4420103;32;19971;-68
2022/06/13 11:04:26;;;;;;;;;;;;;;;36.86;15.34;101624.62;4417922;32;19981;-69
2022/06/13 11:06:54;;;;;;;;;;;;;;;36.42;15.75;101625.84;4418142;32;20000;-69
2022/06/13 11:09:37;;;;;;;;;;;;;;;36.25;16.10;101619.94;4417101;32;20048;-68
2022/06/13 11:12:05;;;;;;;;;;;;;;;35.14;17.16;101630.31;4414783;32;19987;-69
2022/06/13 11:23:01;;;;;;;;;;;;;;;34.27;17.41;101632.22;4415213;32;21034;-69
2022/06/13 11:25:30;;;;;;;;;;;;;;;34.03;17.64;101629.84;4418881;32;20020;-69
2022/06/13 11:28:15;;;;;;;;;;;;;;;35.13;16.64;101622.94;4419614;32;20145;-69
2022/06/13 11:30:43;;;;;;;;;;;;;;;34.90;17.00;101621.44;4419264;32;19996;-70
2022/06/13 11:35:47;;;;;;;;;;;;;;;34.93;17.08;101609.34;3943810;32;15724554;-68
2022/06/13 11:38:14;;;;;;;;;;;;;;;34.93;17.08;101609.34;4419138;32;20005;-69
2022/06/13 11:40:40;;;;;;;;;;;;;;;35.04;16.92;101611.06;4405905;32;19957;-71
2022/06/13 11:43:17;;;;;;;;;;;;;;;34.37;17.52;101624.44;4419780;32;20008;-70
2022/06/13 11:45:42;;;;;;;;;;;;;;;34.34;17.50;101619.72;4418154;32;20224;-70
2022/06/13 11:48:12;;;;;;;;;;;;;;;34.17;17.81;101619.53;4416279;32;20063;-70
2022/06/13 11:50:38;;;;;;;;;;;;;;;34.01;17.96;101615.03;4421829;32;20019;-70
2022/06/13 11:53:35;;;;;;;;;;;;;;;34.47;17.67;101607.09;4419813;32;19962;-70
2022/06/13 11:55:52;;;;;;;;;;;;;;;35.46;16.93;101612.81;4417451;32;19997;-70
2022/06/13 11:58:20;;;;;;;;;;;;;;;36.17;16.27;101614.13;4417007;32;19969;-70
2022/06/13 12:00:49;;;;;;;;;;;;;;;36.01;16.35;101606.81;4415927;32;19998;-70
2022/06/13 12:03:16;;;;;;;;;;;;;;;36.35;16.02;101606.94;4421155;32;20007;-70
2022/06/13 12:05:42;;;;;;;;;;;;;;;35.21;17.09;101611.94;4422081;32;21120;-70
2022/06/13 12:13:43;;;;;;;;;;;;;;;34.80;17.18;101600.78;3958304;31;15716908;-69
2022/06/13 12:16:23;;;;;;;;;;;;;;;34.99;16.94;101600.34;4428479;32;20318;-70
2022/06/13 12:21:30;;;;;;;;;;;;;;;35.79;16.57;101611.47;3942351;32;15733629;-69
2022/06/13 12:26:33;;;;;;;;;;;;;;;35.87;16.57;101618.09;3917338;32;15718457;-70
2022/06/13 12:31:41;;;;;;;;;;;;;;;36.48;16.53;101611.72;3957086;31;15716029;-70
2022/06/13 12:34:16;;;;;;;;;;;;;;;36.48;16.53;101611.72;4440469;32;19965;-70
2022/06/13 12:42:13;;;;;;;;;;;;;;;37.76;15.55;101605.88;3946198;32;15727366;-70
2022/06/13 12:50:10;;;;;;;;;;;;;;;38.19;15.27;101589.50;3946284;32;15722594;-70
2022/06/13 12:55:23;;;;;;;;;;;;;;;38.39;15.23;101599.16;3953284;31;15721230;-70
2022/06/13 13:00:35;;;;;;;;;;;;;;;38.54;15.06;101590.06;3946857;32;15722203;-70
2022/06/13 13:11:01;;;;;;;;;;;;;;;36.40;16.27;101588.34;3946601;32;15724504;-70
2022/06/13 13:13:47;;;;;;;;;;;;;;;36.40;16.27;101588.34;4413504;32;20010;-69
2022/06/13 13:18:52;;;;;;;;;;;;;;;34.91;17.48;101584.97;3957363;31;15718495;-69
2022/06/13 13:21:20;;;;;;;;;;;;;;;34.91;17.48;101584.97;4449434;32;20616;-69
2022/06/13 13:23:53;;;;;;;;;;;;;;;35.02;17.42;101578.69;4446546;32;20027;-69
2022/06/13 13:26:27;;;;;;;;;;;;;;;35.56;16.89;101587.41;4436749;32;20426;-70
2022/06/13 13:31:34;;;;;;;;;;;;;;;36.52;16.14;101594.47;3940561;32;15729277;-69
2022/06/13 13:34:07;;;;;;;;;;;;;;;36.52;16.14;101594.47;4422607;32;19989;-69
2022/06/13 13:39:12;;;;;;;;;;;;;;;35.96;16.79;101591.03;3944746;32;15730333;-70
2022/06/13 13:41:42;;;;;;;;;;;;;;;35.96;16.79;101591.03;4417691;32;19985;-70
2022/06/13 13:44:14;;;;;;;;;;;;;;;35.67;16.90;101597.84;4418874;32;20022;-69
2022/06/13 13:46:43;;;;;;;;;;;;;;;36.08;16.56;101586.25;4419316;32;20020;-69
2022/06/13 13:49:12;;;;;;;;;;;;;;;36.07;16.19;101596.44;4423015;32;20505;-69
2022/06/13 13:51:44;;;;;;;;;;;;;;;35.77;16.21;101598.78;4422691;32;20319;-68
2022/06/13 13:54:17;;;;;;;;;;;;;;;37.16;15.35;101592.00;4420115;32;19991;-68
2022/06/13 13:56:47;;;;;;;;;;;;;;;37.06;15.62;101584.50;4421187;32;19996;-71
2022/06/13 13:59:15;;;;;;;;;;;;;;;36.37;16.18;101594.62;4421237;32;20020;-69
2022/06/13 14:07:11;;;;;;;;;;;;;;;35.87;16.89;101582.13;3939692;32;15728239;-69
2022/06/13 14:09:37;;;;;;;;;;;;;;;35.87;16.89;101582.13;4419382;32;20012;-68
2022/06/13 14:17:15;;;;;;;;;;;;;;;37.54;14.79;101581.44;3929160;32;15722601;-70
2022/06/13 14:19:40;;;;;;;;;;;;;;;37.54;14.88;101583.44;4407776;32;19976;-68
2022/06/13 14:22:13;;;;;;;;;;;;;;;37.77;14.74;101586.06;4411815;32;19997;-69
2022/06/13 14:24:52;;;;;;;;;;;;;;;37.20;15.16;101582.75;4406797;32;19997;-69
2022/06/13 14:27:18;;;;;;;;;;;;;;;36.69;15.61;101585.69;4410193;32;20032;-69
2022/06/13 14:29:46;;;;;;;;;;;;;;;36.25;15.95;101581.81;4406328;32;20051;-70
2022/06/13 14:37:25;;;;;;;;;;;;;;;35.34;16.33;101576.59;3947557;32;15724500;-70
2022/06/13 14:39:55;;;;;;;;;;;;;;;34.17;17.53;101579.41;4419763;32;19961;-70
2022/06/13 14:42:40;;;;;;;;;;;;;;;34.65;17.12;101562.78;4420684;32;20021;-70
2022/06/13 14:45:10;;;;;;;;;;;;;;;35.55;16.31;101568.28;4421884;32;20378;-70
2022/06/13 14:50:35;;;;;;;;;;;;;;;36.74;15.51;101575.87;3953616;32;15723348;-70
2022/06/13 14:53:20;;;;;;;;;;;;;;;36.74;15.51;101575.87;4423736;32;19973;-70
2022/06/13 14:56:06;;;;;;;;;;;;;;;35.04;16.74;101561.31;4425551;32;20104;-70
2022/06/13 14:58:51;;;;;;;;;;;;;;;34.96;16.60;101552.56;4429431;32;20015;-70
2022/06/13 15:01:37;;;;;;;;;;;;;;;34.78;16.67;101547.16;4417166;32;20418;-70
2022/06/13 15:09:24;;;;;;;;;;;;;;;37.06;15.22;101549.28;3948433;32;15725536;-70
2022/06/13 15:11:51;;;;;;;;;;;;;;;37.06;15.22;101549.28;4434239;32;20421;-69
2022/06/13 15:14:20;;;;;;;;;;;;;;;36.78;15.37;101547.66;4431957;32;20028;-69
2022/06/13 15:16:47;;;;;;;;;;;;;;;36.38;15.79;101541.22;4434677;32;20086;-70
2022/06/13 15:19:14;;;;;;;;;;;;;;;36.17;15.87;101547.47;4440051;32;20763;-69
2022/06/13 15:21:58;;;;;;;;;;;;;;;35.55;16.40;101544.09;4434443;32;20017;-69
2022/06/13 15:24:23;;;;;;;;;;;;;;;36.60;15.53;101542.37;4431020;32;19953;-69
2022/06/13 15:26:59;;;;;;;;;;;;;;;37.15;14.95;101537.56;4437248;32;19997;-69
2022/06/13 15:29:25;;;;;;;;;;;;;;;37.69;14.58;101539.19;4438968;32;19957;-69
2022/06/13 15:31:53;;;;;;;;;;;;;;;39.64;13.22;101542.59;4434785;32;19983;-69
2022/06/13 15:36:56;;;;;;;;;;;;;;;43.44;10.63;101539.63;3947108;32;15730289;-70
2022/06/13 15:39:23;;;;;;;;;;;;;;;43.44;10.63;101539.63;4424121;32;19969;-68
2022/06/13 15:41:51;;;;;;;;;;;;;;;41.40;11.61;101533.53;4425279;32;20004;-69
2022/06/13 15:44:19;;;;;;;;;;;;;;;41.10;11.99;101531.53;4422266;32;20448;-69
2022/06/13 15:49:22;;;;;;;;;;;;;;;39.91;12.56;101525.44;3947590;32;15723673;-70
2022/06/13 15:52:08;;;;;;;;;;;;;;;39.91;12.56;101525.44;4429006;32;20041;-68
2022/06/13 15:54:37;;;;;;;;;;;;;;;41.64;11.66;101528.47;4424075;32;19992;-69
2022/06/13 15:59:58;;;;;;;;;;;;;;;45.19;9.50;101526.13;3949126;32;15724937;-70
2022/06/13 16:02:28;;;;;;;;;;;;;;;45.76;9.03;101536.38;4428739;32;20102;-69
2022/06/13 16:04:54;;;;;;;;;;;;;;;42.47;10.98;101527.16;4431998;32;20442;-68
2022/06/13 16:07:24;;;;;;;;;;;;;;;41.47;11.83;101529.56;4427931;32;20854;-69
2022/06/13 16:09:51;;;;;;;;;;;;;;;41.06;12.14;101531.25;4427693;32;20377;-70